Time;durP1;ratioP1;P1;durP2;ratioP2;P2;SDS_P1;SDS_P2;PMS_P1;PMS_P2;Temp;Humidity;BMP_temperature;BMP_pressure;BME280_temperature;BME280_humidity;BME280_pressure;Samples;Min_cycle;Max_cycle;Signal;HPM_P1;HPM_P2
2023/10/07 00:02:26;;;;;;;8.52;3.53;;;;;;;16.47;81.99;100798.41;5016244;28;20038;-55
2023/10/07 00:04:54;;;;;;;8.93;3.35;;;;;;;16.49;82.28;100798.28;5006822;28;20358;-54
2023/10/07 00:11:11;;;;;;;10.95;3.58;;;;;;;16.48;82.50;100792.13;5009670;28;20384;-55
2023/10/07 00:13:42;;;;;;;8.23;3.38;;;;;;;16.49;82.35;100787.66;5019281;28;20112;-56
2023/10/07 00:16:17;;;;;;;8.60;3.58;;;;;;;16.51;82.46;100780.41;5013645;28;20061;-53
2023/10/07 00:18:45;;;;;;;9.32;3.55;;;;;;;16.49;82.61;100796.47;5014331;28;20207;-60
2023/10/07 00:21:18;;;;;;;4.72;3.00;;;;;;;16.51;82.64;100791.03;4988495;28;20612;-58
2023/10/07 00:23:46;;;;;;;6.85;3.35;;;;;;;16.53;82.55;100776.66;4993963;28;20129;-56
2023/10/07 00:26:13;;;;;;;7.85;3.42;;;;;;;16.54;82.71;100783.66;5012904;28;20116;-58
2023/10/07 00:29:41;;;;;;;8.40;3.67;;;;;;;16.54;82.75;100775.69;5017755;28;20069;-59
2023/10/07 00:32:33;;;;;;;8.63;3.38;;;;;;;16.59;82.56;100781.47;5008759;28;21326;-56
2023/10/07 00:35:00;;;;;;;7.47;3.90;;;;;;;16.54;82.79;100781.00;5006716;28;20058;-54
2023/10/07 00:37:30;;;;;;;7.78;3.33;;;;;;;16.56;82.83;100755.13;5012988;28;20135;-57
2023/10/07 00:40:01;;;;;;;11.85;4.18;;;;;;;16.53;83.07;100774.00;5011992;28;20477;-55
2023/10/07 00:42:28;;;;;;;9.57;4.05;;;;;;;16.57;83.24;100759.50;5017834;28;20153;-57
2023/10/07 00:44:56;;;;;;;10.80;3.58;;;;;;;16.53;84.12;100771.34;4996124;28;20125;-59
2023/10/07 00:48:16;;;;;;;6.78;3.20;;;;;;;16.58;84.02;100763.00;5007729;28;20078;-55
2023/10/07 00:51:35;;;;;;;7.50;3.45;;;;;;;16.57;84.07;100778.09;5019860;28;20068;-57
2023/10/07 00:57:06;;;;;;;7.43;3.95;;;;;;;16.60;84.12;100758.38;5009824;28;20120;-56
2023/10/07 00:59:35;;;;;;;9.32;3.47;;;;;;;16.59;84.23;100760.19;5012674;28;20053;-56
2023/10/07 01:02:06;;;;;;;11.88;4.22;;;;;;;16.52;84.70;100751.03;5007291;28;20050;-55
2023/10/07 01:04:40;;;;;;;10.55;4.07;;;;;;;16.62;84.52;100754.63;5001880;28;20115;-56
2023/10/07 01:07:58;;;;;;;7.80;3.40;;;;;;;16.62;84.41;100751.97;5003950;28;20500;-58
2023/10/07 01:13:50;;;;;;;11.55;4.53;;;;;;;16.59;85.11;100738.09;5013457;28;20077;-56
2023/10/07 01:23:02;;;;;;;10.00;4.03;;;;;;;16.59;85.08;100746.06;5011219;28;20160;-55
2023/10/07 01:25:43;;;;;;;9.38;3.53;;;;;;;16.56;85.39;100743.66;5012073;28;20458;-59
2023/10/07 01:28:14;;;;;;;8.40;3.20;;;;;;;16.59;85.43;100741.59;5006019;28;20082;-57
2023/10/07 01:33:39;;;;;;;13.80;4.68;;;;;;;16.58;85.70;100747.88;5015964;28;20155;-54
2023/10/07 01:36:14;;;;;;;10.95;3.70;;;;;;;16.55;86.09;100744.63;5009434;28;20073;-58
2023/10/07 01:39:06;;;;;;;7.07;3.30;;;;;;;16.58;85.92;100741.72;5006361;28;20053;-55
2023/10/07 01:41:38;;;;;;;9.23;4.45;;;;;;;16.54;86.03;100730.50;5013625;28;20066;-55
2023/10/07 01:44:05;;;;;;;5.05;2.97;;;;;;;16.55;86.26;100726.88;5012417;28;20057;-57
2023/10/07 01:47:23;;;;;;;12.38;3.70;;;;;;;16.52;86.47;100723.59;5011172;28;20396;-59
2023/10/07 01:50:40;;;;;;;9.07;3.47;;;;;;;16.50;86.99;100710.47;5003597;28;20048;-57
2023/10/07 01:53:08;;;;;;;7.70;3.00;;;;;;;16.53;87.05;100715.53;5015698;28;20108;-57
2023/10/07 01:55:36;;;;;;;7.25;3.42;;;;;;;16.55;87.19;100734.84;5005586;28;20705;-55
2023/10/07 02:04:39;;;;;;;12.45;3.83;;;;;;;16.55;87.49;100715.38;5005533;28;20058;-59
2023/10/07 02:07:08;;;;;;;12.35;4.25;;;;;;;16.53;87.98;100717.34;4997062;28;20084;-55
2023/10/07 02:09:36;;;;;;;6.93;4.03;;;;;;;16.55;88.13;100704.75;4994836;28;20542;-56
2023/10/07 02:12:11;;;;;;;13.43;4.18;;;;;;;16.55;87.95;100702.09;5009759;28;20050;-56
2023/10/07 02:14:39;;;;;;;17.23;4.10;;;;;;;16.54;88.05;100709.25;5010558;28;20083;-55
2023/10/07 02:17:07;;;;;;;11.25;4.68;;;;;;;16.53;88.46;100702.25;5008841;28;20042;-58
2023/10/07 02:19:38;;;;;;;8.73;3.53;;;;;;;16.56;88.40;100730.38;5000617;28;20143;-59
2023/10/07 02:22:07;;;;;;;8.75;4.15;;;;;;;16.54;88.84;100719.88;5008788;28;20058;-59
2023/10/07 02:24:36;;;;;;;8.52;4.10;;;;;;;16.54;88.98;100698.59;5009977;28;20065;-59
2023/10/07 02:27:54;;;;;;;13.85;4.20;;;;;;;16.53;89.18;100712.88;5007486;28;20084;-56
2023/10/07 02:30:25;;;;;;;12.18;4.55;;;;;;;16.52;89.45;100699.69;5006459;28;20046;-57
2023/10/07 02:32:52;;;;;;;13.15;4.40;;;;;;;16.54;89.57;100687.13;4999379;28;20053;-59
2023/10/07 02:35:20;;;;;;;12.43;4.28;;;;;;;16.46;90.07;100691.25;5008168;28;20081;-56
2023/10/07 02:37:50;;;;;;;9.68;4.05;;;;;;;16.50;90.27;100678.56;4995615;28;20061;-57
2023/10/07 02:40:35;;;;;;;10.18;3.65;;;;;;;16.49;90.10;100695.50;5006989;28;20058;-56
2023/10/07 02:48:48;;;;;;;12.50;4.38;;;;;;;16.49;90.86;100695.50;5004702;28;20058;-56
2023/10/07 02:51:18;;;;;;;9.98;3.50;;;;;;;16.49;91.03;100694.66;5014006;28;20100;-59
2023/10/07 02:57:08;;;;;;;9.33;3.80;;;;;;;16.45;91.82;100705.53;5009601;28;20064;-54
2023/10/07 03:00:49;;;;;;;11.68;4.35;;;;;;;16.46;92.10;100695.72;5015675;28;20057;-58
2023/10/07 03:03:48;;;;;;;13.07;4.70;;;;;;;16.43;92.84;100693.31;5007669;28;20487;-57
2023/10/07 03:07:13;;;;;;;13.95;4.43;;;;;;;16.41;92.83;100688.16;5009550;28;20393;-56
2023/10/07 03:11:22;;;;;;;7.78;4.05;;;;;;;16.38;93.58;100706.16;5019439;28;20626;-57
2023/10/07 03:13:57;;;;;;;8.15;3.88;;;;;;;16.35;93.77;100687.81;5020614;28;20049;-59
2023/10/07 03:16:28;;;;;;;14.77;5.15;;;;;;;16.38;94.06;100704.31;5007230;28;20587;-56
2023/10/07 03:19:48;;;;;;;11.18;4.75;;;;;;;16.38;94.11;100703.50;5010887;28;20046;-57
2023/10/07 03:23:10;;;;;;;13.93;4.53;;;;;;;16.35;94.31;100683.34;5011948;28;20051;-56
2023/10/07 03:25:34;;;;;;;14.38;4.70;;;;;;;16.38;94.49;100685.72;5012274;28;20053;-53
2023/10/07 03:28:16;;;;;;;6.97;4.47;;;;;;;16.39;94.62;100695.41;5010337;28;20073;-56
2023/10/07 03:30:51;;;;;;;10.25;4.60;;;;;;;16.36;95.03;100687.69;5008332;28;20072;-59
2023/10/07 03:33:23;;;;;;;;;;;;;;;16.35;95.13;100698.44;5011515;28;20078;-59
2023/10/07 03:43:12;;;;;;;13.25;4.78;;;;;;;16.35;95.68;100682.50;5005780;28;20480;-54
2023/10/07 03:45:42;;;;;;;7.72;4.20;;;;;;;16.37;95.93;100694.69;5020178;28;20096;-55
2023/10/07 03:48:23;;;;;;;19.75;4.32;;;;;;;16.35;95.71;100679.84;5009481;28;20089;-56
2023/10/07 03:51:15;;;;;;;16.00;4.85;;;;;;;16.33;96.23;100687.91;5009445;28;20074;-60
2023/10/07 03:53:44;;;;;;;16.17;4.30;;;;;;;16.36;95.88;100685.03;5009477;28;20145;-59
2023/10/07 03:56:13;;;;;;;12.02;4.20;;;;;;;16.36;95.74;100692.16;5009875;28;20141;-56
2023/10/07 04:02:49;;;;;;;14.77;4.32;;;;;;;16.29;96.49;100685.66;5018805;28;20040;-57
2023/10/07 04:06:09;;;;;;;10.20;4.15;;;;;;;16.28;96.42;100695.44;5008726;28;20046;-57
2023/10/07 04:09:32;;;;;;;11.47;3.97;;;;;;;16.29;96.49;100721.03;5006269;28;20049;-58
2023/10/07 04:18:35;;;;;;;6.43;3.63;;;;;;;16.29;96.44;100704.25;5003900;28;20105;-58
2023/10/07 04:21:30;;;;;;;9.82;4.25;;;;;;;16.30;96.49;100704.13;5010620;28;20631;-59
2023/10/07 04:24:01;;;;;;;10.93;3.63;;;;;;;16.31;96.23;100697.00;5008061;28;20667;-57
2023/10/07 04:26:54;;;;;;;8.52;4.43;;;;;;;16.25;96.65;100702.78;5007230;28;20065;-56
2023/10/07 04:30:13;;;;;;;9.02;4.03;;;;;;;16.22;96.94;100690.63;5013804;28;20048;-58
2023/10/07 04:33:41;;;;;;;12.63;4.97;;;;;;;16.26;96.88;100692.06;5005099;28;20052;-56
2023/10/07 04:36:13;;;;;;;10.88;3.75;;;;;;;16.23;97.26;100704.75;5009322;28;20084;-59
2023/10/07 04:38:53;;;;;;;12.73;4.82;;;;;;;16.22;97.14;100693.28;5007887;28;20081;-60
2023/10/07 04:42:51;;;;;;;9.38;4.07;;;;;;;16.18;97.74;100687.38;5010361;28;20096;-60
2023/10/07 04:46:21;;;;;;;9.93;4.05;;;;;;;16.18;97.83;100695.34;5010340;28;20128;-61
2023/10/07 04:48:56;;;;;;;11.15;4.38;;;;;;;16.16;98.17;100688.44;5010576;28;20050;-57
2023/10/07 04:54:00;;;;;;;11.00;4.45;;;;;;;16.13;98.92;100672.78;5006067;28;20089;-60
2023/10/07 04:56:32;;;;;;;13.52;4.32;;;;;;;16.10;99.01;100679.19;5007570;28;20096;-60
2023/10/07 04:59:06;;;;;;;10.77;4.45;;;;;;;16.11;99.03;100669.41;5002458;28;20083;-61
2023/10/07 05:01:34;;;;;;;12.18;4.75;;;;;;;16.08;99.67;100672.31;5011853;28;20085;-61
2023/10/07 05:04:04;;;;;;;11.63;4.47;;;;;;;16.08;100.00;100674.97;5009277;28;20129;-59
2023/10/07 05:06:35;;;;;;;11.68;4.32;;;;;;;16.04;100.00;100671.72;5011236;28;20563;-56
2023/10/07 05:12:00;;;;;;;8.63;4.07;;;;;;;16.05;100.00;100672.56;5003560;28;20050;-58
2023/10/07 05:14:28;;;;;;;8.98;4.97;;;;;;;15.94;100.00;100682.25;5011870;28;20634;-58
2023/10/07 05:16:58;;;;;;;8.13;4.35;;;;;;;15.88;100.00;100674.75;5008296;28;20043;-57
2023/10/07 05:19:27;;;;;;;17.35;4.43;;;;;;;15.86;100.00;100674.03;5008628;28;20598;-59
2023/10/07 05:24:45;;;;;;;9.02;4.22;;;;;;;15.95;100.00;100680.44;4994838;28;20074;-60
2023/10/07 05:27:13;;;;;;;8.30;4.15;;;;;;;15.99;100.00;100676.56;5002391;28;20631;-60
2023/10/07 05:29:43;;;;;;;10.82;4.60;;;;;;;16.02;100.00;100684.25;5010496;28;20041;-59
2023/10/07 05:32:11;;;;;;;10.57;4.22;;;;;;;15.99;100.00;100681.88;5006970;28;20092;-58
2023/10/07 05:34:38;;;;;;;10.02;4.30;;;;;;;16.07;100.00;100681.22;5006322;28;20058;-59
2023/10/07 05:37:11;;;;;;;8.60;4.10;;;;;;;16.10;100.00;100683.66;5003779;28;20042;-58
2023/10/07 05:40:06;;;;;;;7.85;3.63;;;;;;;16.15;100.00;100678.81;5006727;28;20054;-59
2023/10/07 05:42:35;;;;;;;13.07;4.22;;;;;;;16.14;100.00;100669.16;5008174;28;20081;-58
2023/10/07 05:45:06;;;;;;;21.08;4.72;;;;;;;16.09;100.00;100666.88;5013942;28;20385;-59
2023/10/07 05:54:31;;;;;;;15.68;4.53;;;;;;;16.12;100.00;100676.38;5004650;28;20397;-58
2023/10/07 05:56:59;;;;;;;8.02;3.92;;;;;;;16.13;100.00;100684.25;5007768;28;20054;-60
2023/10/07 05:59:33;;;;;;;9.00;4.05;;;;;;;16.15;100.00;100682.28;5009179;28;20141;-58
2023/10/07 06:02:05;;;;;;;11.18;4.00;;;;;;;16.19;100.00;100674.94;5016244;28;20080;-59
2023/10/07 06:04:35;;;;;;;15.70;4.55;;;;;;;16.17;100.00;100684.84;4990202;28;20054;-57
2023/10/07 06:07:06;;;;;;;11.68;4.07;;;;;;;16.18;100.00;100675.91;5009800;28;20149;-57
2023/10/07 06:13:15;;;;;;;7.65;3.60;;;;;;;16.14;100.00;100691.25;5009141;28;20554;-58
2023/10/07 06:15:42;;;;;;;7.93;4.13;;;;;;;16.08;100.00;100697.06;5007427;28;20108;-59
2023/10/07 06:18:09;;;;;;;9.05;4.40;;;;;;;16.04;100.00;100695.63;5007816;28;20116;-57
2023/10/07 06:20:46;;;;;;;8.73;4.03;;;;;;;16.00;100.00;100727.84;5007913;28;20089;-59
2023/10/07 06:23:14;;;;;;;12.73;4.70;;;;;;;15.92;100.00;100713.38;5008077;28;20187;-55
2023/10/07 06:25:49;;;;;;;8.02;4.57;;;;;;;15.91;100.00;100719.66;5010075;28;20053;-59
2023/10/07 06:31:27;;;;;;;13.55;5.38;;;;;;;15.76;100.00;100723.53;5005610;28;20051;-61
2023/10/07 06:34:03;;;;;;;14.32;4.70;;;;;;;15.82;100.00;100723.03;5010766;28;20069;-58
2023/10/07 06:37:30;;;;;;;11.30;5.03;;;;;;;15.77;100.00;100735.00;5002129;28;20145;-59
2023/10/07 06:40:25;;;;;;;10.45;5.07;;;;;;;15.69;100.00;100728.47;5012344;28;20041;-58
2023/10/07 06:42:55;;;;;;;13.32;4.95;;;;;;;15.70;100.00;100724.84;5013985;28;20771;-60
2023/10/07 06:45:23;;;;;;;11.57;4.78;;;;;;;15.62;100.00;100740.47;4994287;28;20046;-58
2023/10/07 06:51:36;;;;;;;11.75;5.60;;;;;;;15.64;100.00;100754.53;5014479;28;20041;-59
2023/10/07 06:54:04;;;;;;;16.25;5.13;;;;;;;15.68;100.00;100745.38;5012737;28;20104;-57
2023/10/07 06:56:34;;;;;;;11.38;5.15;;;;;;;15.66;100.00;100735.81;4991058;28;20077;-57
2023/10/07 07:02:23;;;;;;;8.43;4.97;;;;;;;15.63;100.00;100752.81;5011733;28;20052;-58
2023/10/07 07:05:00;;;;;;;14.63;5.28;;;;;;;15.67;100.00;100751.66;5010218;28;20096;-58
2023/10/07 07:07:28;;;;;;;10.50;4.95;;;;;;;15.66;100.00;100743.78;5006505;28;20061;-60
2023/10/07 07:09:58;;;;;;;11.57;5.15;;;;;;;15.70;100.00;100751.38;4997693;28;20078;-60
2023/10/07 07:12:26;;;;;;;14.77;4.88;;;;;;;15.79;100.00;100762.25;5013717;28;20054;-59
2023/10/07 07:15:05;;;;;;;9.52;4.18;;;;;;;15.75;100.00;100761.63;5014914;28;20586;-58
2023/10/07 07:17:35;;;;;;;10.85;4.75;;;;;;;15.70;100.00;100762.00;5013440;28;20147;-61
2023/10/07 07:22:45;;;;;;;13.00;5.38;;;;;;;15.48;100.00;100766.41;5010678;28;20096;-57
2023/10/07 07:25:29;;;;;;;15.25;5.00;;;;;;;15.48;100.00;100761.09;5012697;28;20107;-58
2023/10/07 07:28:23;;;;;;;14.90;5.32;;;;;;;15.41;100.00;100768.69;5009822;28;20049;-57
2023/10/07 07:30:57;;;;;;;12.32;5.03;;;;;;;15.44;100.00;100769.31;5009908;28;20385;-59
2023/10/07 07:33:42;;;;;;;11.35;4.75;;;;;;;15.48;100.00;100761.94;5011966;28;20080;-60
2023/10/07 07:43:07;;;;;;;15.48;5.70;;;;;;;15.66;100.00;100770.31;5012171;28;20029;-58
2023/10/07 07:45:38;;;;;;;16.13;5.38;;;;;;;15.54;100.00;100776.56;5007717;28;20087;-59
2023/10/07 07:48:06;;;;;;;10.75;5.05;;;;;;;15.57;100.00;100784.28;5009825;28;20096;-58
2023/10/07 07:51:24;;;;;;;10.98;5.43;;;;;;;15.56;100.00;100778.13;5012027;28;20084;-59
2023/10/07 07:54:40;;;;;;;12.30;6.10;;;;;;;15.63;100.00;100776.69;5012153;28;20630;-60
2023/10/07 07:57:08;;;;;;;5.85;4.25;;;;;;;15.73;100.00;100771.53;5013460;28;20061;-58
2023/10/07 07:59:35;;;;;;;15.55;5.47;;;;;;;15.77;100.00;100748.25;5011584;28;20095;-58
2023/10/07 08:02:12;;;;;;;11.35;4.80;;;;;;;15.78;100.00;100757.91;5013875;28;20053;-60
2023/10/07 08:04:48;;;;;;;10.68;4.75;;;;;;;15.87;100.00;100758.03;5011102;28;20145;-58
2023/10/07 08:09:55;;;;;;;15.75;5.38;;;;;;;15.89;100.00;100785.28;5014450;28;20525;-59
2023/10/07 08:12:31;;;;;;;9.32;4.15;;;;;;;15.92;100.00;100782.41;5009673;28;20073;-58
2023/10/07 08:14:59;;;;;;;7.88;4.13;;;;;;;15.97;100.00;100774.06;5010245;28;20084;-58
2023/10/07 08:24:52;;;;;;;13.68;5.07;;;;;;;16.10;100.00;100782.75;5010146;28;20074;-59
2023/10/07 08:36:17;;;;;;;8.75;3.67;;;;;;;16.14;100.00;100776.22;5011563;28;20050;-57
2023/10/07 08:38:45;;;;;;;8.38;4.10;;;;;;;16.09;100.00;100782.88;5015378;28;20092;-59
2023/10/07 08:41:16;;;;;;;11.77;4.60;;;;;;;16.02;100.00;100774.53;5013229;28;20076;-60
2023/10/07 08:43:45;;;;;;;11.32;4.38;;;;;;;15.91;100.00;100790.50;5013979;28;20106;-60
2023/10/07 08:46:17;;;;;;;8.43;4.68;;;;;;;15.93;100.00;100793.84;5008683;28;20073;-61
2023/10/07 08:49:35;;;;;;;10.48;4.57;;;;;;;15.90;100.00;100794.13;5013180;28;20088;-59
2023/10/07 08:53:25;;;;;;;9.85;4.60;;;;;;;15.99;100.00;100771.31;5010547;28;20057;-62
2023/10/07 08:56:00;;;;;;;7.63;4.20;;;;;;;16.05;100.00;100763.69;5007015;28;20064;-57
2023/10/07 08:58:31;;;;;;;12.27;4.55;;;;;;;16.04;100.00;100756.69;5013074;28;20410;-60
2023/10/07 09:00:58;;;;;;;9.73;3.90;;;;;;;16.16;100.00;100766.31;4988492;28;20085;-62
2023/10/07 09:03:28;;;;;;;9.20;4.40;;;;;;;16.15;100.00;100779.72;5012455;28;20065;-62
2023/10/07 09:06:00;;;;;;;7.68;4.50;;;;;;;16.20;100.00;100772.22;5008119;28;20077;-60
2023/10/07 09:09:24;;;;;;;15.27;4.88;;;;;;;16.27;100.00;100764.63;5013250;28;20096;-60
2023/10/07 09:13:31;;;;;;;8.90;4.40;;;;;;;16.26;100.00;100768.25;5006274;28;20539;-61
2023/10/07 09:15:59;;;;;;;10.27;4.40;;;;;;;16.26;100.00;100765.59;5009419;28;20065;-61
2023/10/07 09:18:45;;;;;;;9.25;4.43;;;;;;;16.27;100.00;100760.16;5010349;28;20061;-61
2023/10/07 09:21:22;;;;;;;7.05;4.05;;;;;;;16.32;100.00;100757.97;5012913;28;20401;-61
2023/10/07 09:23:52;;;;;;;6.95;4.40;;;;;;;16.33;100.00;100764.13;5011612;28;20541;-62
2023/10/07 09:26:22;;;;;;;11.80;5.50;;;;;;;16.32;100.00;100767.75;4994232;28;20069;-61
2023/10/07 09:38:43;;;;;;;10.48;5.55;;;;;;;16.36;100.00;100767.38;5007008;28;20081;-54
2023/10/07 09:43:57;;;;;;;12.23;4.75;;;;;;;16.38;100.00;100778.72;5008946;28;20050;-57
2023/10/07 09:46:25;;;;;;;10.02;4.45;;;;;;;16.42;100.00;100771.34;5007439;28;20068;-56
2023/10/07 09:49:46;;;;;;;12.65;5.22;;;;;;;16.28;100.00;100764.50;5006472;28;20061;-61
2023/10/07 09:53:24;;;;;;;13.60;5.78;;;;;;;16.25;100.00;100766.56;5009351;28;20037;-60
2023/10/07 09:55:58;;;;;;;14.05;5.85;;;;;;;16.25;100.00;100766.56;4994030;28;20046;-61
2023/10/07 09:58:43;;;;;;;7.97;5.30;;;;;;;16.31;100.00;100769.56;5008503;28;20099;-58
2023/10/07 10:01:42;;;;;;;11.20;6.25;;;;;;;16.25;100.00;100767.38;4994550;28;20061;-58
2023/10/07 10:04:21;;;;;;;12.70;6.47;;;;;;;16.29;100.00;100779.47;5009091;28;20073;-59
2023/10/07 10:10:34;;;;;;;11.88;6.72;;;;;;;16.09;100.00;100778.41;4995765;28;20096;-60
2023/10/07 10:18:05;;;;;;;13.35;7.50;;;;;;;16.08;100.00;100755.47;5005666;28;20092;-59
2023/10/07 10:20:42;;;;;;;15.38;8.18;;;;;;;16.05;100.00;100771.66;5010776;28;20088;-52
2023/10/07 10:23:20;;;;;;;18.48;8.77;;;;;;;16.03;100.00;100762.97;5004351;28;20061;-59
2023/10/07 10:25:53;;;;;;;14.13;8.85;;;;;;;16.04;100.00;100748.72;5003354;28;20184;-59
2023/10/07 10:28:59;;;;;;;12.85;8.75;;;;;;;16.01;100.00;100748.97;5007353;28;20104;-60
2023/10/07 10:31:34;;;;;;;12.30;7.72;;;;;;;16.11;100.00;100749.91;5009500;28;20120;-58
2023/10/07 10:34:04;;;;;;;9.77;8.23;;;;;;;16.03;100.00;100765.63;5008094;28;20089;-59
2023/10/07 10:44:15;;;;;;;12.93;9.82;;;;;;;16.09;100.00;100735.09;5010430;28;20124;-59
2023/10/07 10:47:33;;;;;;;15.88;9.60;;;;;;;16.15;100.00;100740.72;5006236;28;20046;-59
2023/10/07 10:50:50;;;;;;;14.90;9.77;;;;;;;16.08;100.00;100738.72;5007392;28;20179;-61
2023/10/07 11:10:42;;;;;;;14.05;11.80;;;;;;;15.84;100.00;100705.16;5006810;28;20413;-61
2023/10/07 11:14:01;;;;;;;15.60;11.75;;;;;;;15.84;100.00;100699.00;5004512;28;20050;-60
2023/10/07 11:17:18;;;;;;;12.68;11.02;;;;;;;15.94;100.00;100713.25;5008140;28;20049;-57
2023/10/07 11:23:30;;;;;;;16.38;12.40;;;;;;;15.86;100.00;100702.41;5012458;28;20057;-59
2023/10/07 11:26:49;;;;;;;15.10;11.63;;;;;;;15.94;100.00;100698.19;4996752;28;20058;-59
2023/10/07 11:30:06;;;;;;;17.30;13.13;;;;;;;15.96;100.00;100706.00;5013869;28;20040;-59
2023/10/07 11:54:50;;;;;;;16.42;13.48;;;;;;;15.99;100.00;100697.81;5011510;28;20127;-59
2023/10/07 11:58:08;;;;;;;18.08;14.52;;;;;;;16.05;100.00;100681.38;5011375;28;20127;-57
2023/10/07 12:01:24;;;;;;;17.33;13.60;;;;;;;16.13;100.00;100683.41;5013105;28;20036;-54
2023/10/07 12:03:53;;;;;;;18.58;13.65;;;;;;;16.05;100.00;100688.50;5011203;28;20502;-59
2023/10/07 12:07:14;;;;;;;19.75;14.93;;;;;;;15.84;100.00;100691.88;5011560;28;20077;-57
2023/10/07 12:10:36;;;;;;;18.98;15.88;;;;;;;15.82;100.00;100691.19;5011026;28;20096;-54
2023/10/07 12:13:51;;;;;;;25.33;16.70;;;;;;;15.69;100.00;100686.00;5011438;28;20539;-58
2023/10/07 12:16:21;;;;;;;21.10;17.48;;;;;;;15.62;100.00;100682.09;5013185;28;20050;-55
2023/10/07 12:18:48;;;;;;;20.83;18.63;;;;;;;15.63;100.00;100690.94;5011697;28;20058;-59
2023/10/07 12:21:17;;;;;;;22.83;18.45;;;;;;;15.60;100.00;100686.69;5007722;28;20074;-60
2023/10/07 12:23:44;;;;;;;20.92;17.02;;;;;;;15.60;100.00;100680.56;5010715;28;20136;-61
2023/10/07 12:26:12;;;;;;;20.15;16.23;;;;;;;15.61;100.00;100679.59;5013525;28;20046;-57
2023/10/07 12:28:44;;;;;;;21.20;18.10;;;;;;;15.58;100.00;100683.34;5007719;28;20065;-59
2023/10/07 12:31:12;;;;;;;19.00;16.33;;;;;;;15.59;100.00;100697.44;5008382;28;20062;-60
2023/10/07 12:33:40;;;;;;;23.70;17.65;;;;;;;15.60;100.00;100675.25;5013119;28;20069;-57
2023/10/07 12:36:12;;;;;;;22.90;17.38;;;;;;;15.61;100.00;100688.38;5010216;28;20045;-58
2023/10/07 12:38:39;;;;;;;26.88;17.00;;;;;;;15.68;100.00;100694.09;5009236;28;20078;-59
2023/10/07 12:41:09;;;;;;;18.95;15.82;;;;;;;15.69;100.00;100671.88;5009670;28;20076;-61
2023/10/07 12:43:37;;;;;;;21.95;15.68;;;;;;;15.69;100.00;100672.72;5008280;28;20069;-55
2023/10/07 12:46:09;;;;;;;19.27;15.90;;;;;;;15.71;100.00;100667.28;5006481;28;20662;-58
2023/10/07 12:48:40;;;;;;;19.33;16.05;;;;;;;15.76;100.00;100672.22;5013380;28;20049;-51
2023/10/07 12:51:08;;;;;;;17.40;14.05;;;;;;;15.84;100.00;100667.16;5010942;28;20076;-54
2023/10/07 12:53:36;;;;;;;20.02;16.15;;;;;;;15.86;100.00;100666.09;5010651;28;20053;-59
2023/10/07 12:56:12;;;;;;;19.13;13.65;;;;;;;15.95;100.00;100670.66;5009714;28;20049;-60
2023/10/07 12:58:42;;;;;;;18.48;13.55;;;;;;;16.00;100.00;100672.09;5011807;28;20578;-58
2023/10/07 13:01:11;;;;;;;16.77;13.27;;;;;;;16.06;100.00;100655.66;5017958;28;20497;-58
2023/10/07 13:03:47;;;;;;;21.02;15.35;;;;;;;16.08;100.00;100659.03;5009440;28;20135;-59
2023/10/07 13:06:14;;;;;;;;;;;;;;;16.12;100.00;100671.94;5014464;28;20069;-58
2023/10/07 13:08:43;;;;;;;19.90;13.43;;;;;;;16.18;100.00;100666.13;5010658;28;19952;-57
2023/10/07 13:11:13;;;;;;;15.32;12.55;;;;;;;16.16;100.00;100672.50;5009783;28;20109;-60
2023/10/07 13:13:41;;;;;;;16.52;12.30;;;;;;;16.23;100.00;100671.06;4996910;28;20099;-59
2023/10/07 13:16:10;;;;;;;18.45;12.85;;;;;;;16.23;100.00;100662.25;4991197;28;20056;-57
2023/10/07 13:18:41;;;;;;;17.25;13.05;;;;;;;16.27;100.00;100674.31;5015038;28;20073;-60
2023/10/07 13:21:13;;;;;;;17.95;11.05;;;;;;;16.29;100.00;100683.00;5009641;28;20041;-59
2023/10/07 13:23:41;;;;;;;18.77;12.55;;;;;;;16.33;100.00;100671.13;5012931;28;20088;-60
2023/10/07 13:26:11;;;;;;;21.95;12.95;;;;;;;16.41;100.00;100668.69;5011826;28;20042;-60
2023/10/07 13:28:39;;;;;;;16.00;11.07;;;;;;;16.45;100.00;100663.00;5010963;28;20057;-58
2023/10/07 13:31:09;;;;;;;18.27;12.05;;;;;;;16.43;100.00;100664.94;5000043;28;20551;-61
2023/10/07 13:33:37;;;;;;;14.23;10.35;;;;;;;16.43;100.00;100670.25;5009987;28;20054;-58
2023/10/07 13:36:06;;;;;;;18.27;12.02;;;;;;;16.47;100.00;100673.50;5009664;28;20046;-60
2023/10/07 13:38:34;;;;;;;16.98;12.18;;;;;;;16.53;100.00;100664.19;5014945;28;20153;-60
2023/10/07 13:41:05;;;;;;;19.50;11.25;;;;;;;16.47;100.00;100662.88;5007048;28;20143;-53
2023/10/07 13:43:35;;;;;;;15.93;11.07;;;;;;;16.49;100.00;100652.97;5014733;28;20081;-54
2023/10/07 13:46:12;;;;;;;19.50;10.32;;;;;;;16.55;100.00;100660.41;5008914;28;20074;-59
2023/10/07 13:48:42;;;;;;;17.30;10.95;;;;;;;16.56;100.00;100650.63;4993299;28;20508;-60
2023/10/07 13:51:10;;;;;;;16.58;10.77;;;;;;;16.57;100.00;100645.22;4995296;28;20115;-59
2023/10/07 13:53:51;;;;;;;12.50;9.48;;;;;;;16.62;100.00;100660.78;5010091;28;20050;-55
2023/10/07 13:56:45;;;;;;;18.38;11.27;;;;;;;16.67;100.00;100661.22;5011989;28;20058;-59
2023/10/07 13:59:13;;;;;;;20.50;11.07;;;;;;;16.73;100.00;100655.41;5006440;28;20169;-59
2023/10/07 14:01:44;;;;;;;14.65;9.60;;;;;;;16.79;100.00;100640.75;5008075;28;20074;-59
2023/10/07 14:04:15;;;;;;;17.30;9.52;;;;;;;16.79;100.00;100630.13;5006748;28;20053;-56
2023/10/07 14:06:43;;;;;;;15.82;9.95;;;;;;;16.80;100.00;100639.81;5008350;28;20045;-59
2023/10/07 14:09:23;;;;;;;15.25;10.18;;;;;;;16.87;100.00;100638.28;5011834;28;20116;-60
2023/10/07 14:11:51;;;;;;;17.17;9.75;;;;;;;16.96;100.00;100638.34;5012359;28;20057;-62
2023/10/07 14:14:19;;;;;;;14.77;9.68;;;;;;;17.03;100.00;100630.69;5007275;28;20097;-59
2023/10/07 14:16:47;;;;;;;16.00;9.57;;;;;;;17.04;100.00;100635.03;5017445;28;20050;-58
2023/10/07 14:19:15;;;;;;;10.85;8.32;;;;;;;17.13;100.00;100623.59;5012816;28;20516;-59
2023/10/07 14:21:45;;;;;;;18.73;9.65;;;;;;;17.13;100.00;100634.25;5008967;28;20074;-59
2023/10/07 14:24:14;;;;;;;12.60;8.07;;;;;;;17.16;100.00;100630.50;5007136;28;20046;-58
2023/10/07 14:26:43;;;;;;;11.70;8.00;;;;;;;17.12;100.00;100645.88;5014616;28;20155;-59
2023/10/07 14:29:11;;;;;;;15.20;10.25;;;;;;;16.96;100.00;100661.44;5009794;28;20050;-57
2023/10/07 14:31:43;;;;;;;17.45;10.85;;;;;;;16.87;100.00;100680.84;5008350;28;20096;-59
2023/10/07 14:34:11;;;;;;;16.88;11.32;;;;;;;16.71;100.00;100676.78;5008302;28;20077;-57
2023/10/07 14:36:42;;;;;;;18.67;11.65;;;;;;;16.60;100.00;100671.50;5009340;28;20050;-60
2023/10/07 14:39:12;;;;;;;19.52;12.73;;;;;;;16.44;100.00;100668.47;5007861;28;20135;-59
2023/10/07 14:41:43;;;;;;;18.10;12.65;;;;;;;16.27;100.00;100672.50;5010764;28;20123;-59
2023/10/07 14:44:10;;;;;;;15.63;11.70;;;;;;;16.26;100.00;100670.81;5014795;28;20077;-58
2023/10/07 14:46:41;;;;;;;23.65;12.90;;;;;;;16.17;100.00;100674.22;5016440;28;20468;-57
2023/10/07 14:49:10;;;;;;;17.08;13.45;;;;;;;16.16;100.00;100673.34;5011057;28;20117;-58
2023/10/07 14:51:38;;;;;;;17.63;11.73;;;;;;;16.09;100.00;100674.84;4990467;28;20089;-61
2023/10/07 14:54:05;;;;;;;14.70;11.65;;;;;;;16.06;100.00;100675.09;5007804;28;20073;-58
2023/10/07 14:56:32;;;;;;;13.02;10.73;;;;;;;16.00;100.00;100686.22;5017480;28;20107;-58
2023/10/07 14:59:00;;;;;;;10.05;7.13;;;;;;;16.02;100.00;100700.19;5014649;28;20469;-59
2023/10/07 15:01:27;;;;;;;7.72;5.18;;;;;;;16.00;100.00;100694.19;5015836;28;20077;-60
2023/10/07 15:03:55;;;;;;;6.53;3.15;;;;;;;15.93;100.00;100693.81;5015525;28;20100;-60
2023/10/07 15:06:23;;;;;;;3.53;2.40;;;;;;;15.92;100.00;100702.75;5018571;28;20050;-54
2023/10/07 15:08:50;;;;;;;5.38;2.85;;;;;;;15.83;100.00;100700.81;5020240;28;20116;-59
2023/10/07 15:11:20;;;;;;;2.33;1.80;;;;;;;15.81;100.00;100700.13;5022900;28;20064;-58